Time;durP1;ratioP1;P1;durP2;ratioP2;P2;SDS_P1;SDS_P2;PMS_P1;PMS_P2;Temp;Humidity;BMP_temperature;BMP_pressure;BME280_temperature;BME280_humidity;BME280_pressure;Samples;Min_cycle;Max_cycle;Signal;HPM_P1;HPM_P2
2020/12/31 00:01:25;;;;;;;4.57;3.25;;;21.70;33.00;;;;;;5004106;28;20773;-67
2020/12/31 00:03:52;;;;;;;3.35;2.92;;;21.60;33.10;;;;;;5005352;28;20484;-68
2020/12/31 00:06:18;;;;;;;4.40;2.80;;;21.60;33.10;;;;;;5009309;28;20405;-68
2020/12/31 00:08:44;;;;;;;3.45;3.00;;;21.60;33.10;;;;;;5014644;28;20876;-68
2020/12/31 00:11:10;;;;;;;4.20;3.03;;;21.70;33.20;;;;;;5014690;28;20401;-67
2020/12/31 00:13:37;;;;;;;4.90;3.30;;;21.60;33.20;;;;;;5014453;28;20893;-68
2020/12/31 00:16:04;;;;;;;3.72;2.90;;;21.60;33.20;;;;;;5005432;28;20448;-67
2020/12/31 00:18:30;;;;;;;3.50;3.10;;;21.60;33.20;;;;;;4994834;28;20399;-68
2020/12/31 00:20:55;;;;;;;4.73;3.00;;;21.60;33.20;;;;;;4994881;28;20401;-68
2020/12/31 00:23:21;;;;;;;3.72;3.05;;;21.60;33.20;;;;;;4995027;28;20473;-68
2020/12/31 00:25:49;;;;;;;3.87;2.70;;;21.50;33.20;;;;;;4994695;28;20942;-68
2020/12/31 00:28:16;;;;;;;4.18;3.00;;;21.60;33.20;;;;;;4994341;28;20379;-67
2020/12/31 00:30:42;;;;;;;3.78;2.85;;;21.60;33.20;;;;;;4994616;28;20406;-68
2020/12/31 00:33:09;;;;;;;3.55;3.05;;;21.60;33.20;;;;;;4994615;28;20498;-67
2020/12/31 00:35:35;;;;;;;3.53;2.97;;;21.60;33.20;;;;;;4994396;28;20892;-68
2020/12/31 00:38:01;;;;;;;3.90;3.08;;;21.50;33.20;;;;;;4994293;28;20395;-68
2020/12/31 00:40:26;;;;;;;3.30;2.90;;;21.50;33.20;;;;;;4994220;28;20474;-68
2020/12/31 00:42:52;;;;;;;4.10;2.80;;;21.50;33.20;;;;;;4994417;28;20426;-68
2020/12/31 00:45:18;;;;;;;3.57;2.77;;;21.60;33.30;;;;;;4976897;28;20763;-68
2020/12/31 00:47:43;;;;;;;4.10;2.85;;;21.50;33.20;;;;;;4994430;28;20407;-67
2020/12/31 00:50:09;;;;;;;3.70;2.80;;;21.50;33.30;;;;;;4993915;28;20508;-68
2020/12/31 00:52:34;;;;;;;3.22;2.58;;;21.50;33.30;;;;;;4994164;28;20394;-68
2020/12/31 00:55:00;;;;;;;3.30;2.50;;;21.50;33.30;;;;;;4993134;28;20839;-68
2020/12/31 00:57:26;;;;;;;3.45;2.70;;;21.50;33.30;;;;;;4994158;28;20430;-68
2020/12/31 00:59:51;;;;;;;3.35;2.88;;;21.50;33.30;;;;;;4994170;28;20406;-68
2020/12/31 01:02:17;;;;;;;3.37;2.53;;;21.50;33.30;;;;;;4993768;28;20399;-68
2020/12/31 01:04:42;;;;;;;3.50;2.60;;;21.50;33.30;;;;;;4976381;28;20422;-68
2020/12/31 01:07:08;;;;;;;2.87;2.57;;;21.50;33.20;;;;;;4994038;28;20477;-68
2020/12/31 01:09:34;;;;;;;3.58;2.58;;;21.40;33.20;;;;;;4993898;28;20448;-68
2020/12/31 01:11:59;;;;;;;3.20;2.70;;;21.50;33.30;;;;;;4993988;28;20397;-68
2020/12/31 01:14:25;;;;;;;3.00;2.70;;;21.40;33.80;;;;;;4993167;28;20774;-67
2020/12/31 01:16:50;;;;;;;3.33;2.50;;;21.40;33.20;;;;;;4993806;28;20832;-68
2020/12/31 01:19:16;;;;;;;3.10;2.40;;;21.40;33.30;;;;;;4993750;28;20391;-68
2020/12/31 01:21:45;;;;;;;3.03;2.50;;;21.40;33.20;;;;;;4976330;28;20402;-68
2020/12/31 01:24:12;;;;;;;2.80;2.30;;;21.40;33.20;;;;;;4993440;28;20394;-68
2020/12/31 01:26:38;;;;;;;3.30;2.40;;;21.40;33.30;;;;;;4993658;28;20382;-68
2020/12/31 01:29:04;;;;;;;3.28;2.50;;;21.40;33.30;;;;;;4993623;28;20500;-68
2020/12/31 01:31:30;;;;;;;3.25;2.45;;;21.40;33.40;;;;;;4993690;28;20394;-68
2020/12/31 01:33:56;;;;;;;3.30;2.60;;;21.30;33.40;;;;;;4976059;28;20453;-68
2020/12/31 01:36:22;;;;;;;3.10;2.37;;;21.30;33.40;;;;;;4993076;28;20395;-67
2020/12/31 01:38:48;;;;;;;2.75;2.42;;;21.40;33.50;;;;;;4993403;28;20391;-68
2020/12/31 01:41:14;;;;;;;2.65;2.38;;;21.40;33.50;;;;;;4993470;28;20469;-67
2020/12/31 01:43:40;;;;;;;2.63;2.30;;;21.30;33.40;;;;;;4993338;28;20437;-68
2020/12/31 01:46:11;;;;;;;2.50;2.20;;;21.30;33.40;;;;;;4993089;28;20382;-68
2020/12/31 01:48:38;;;;;;;2.97;2.30;;;21.30;33.40;;;;;;4975772;28;20403;-67
2020/12/31 01:51:04;;;;;;;2.70;2.30;;;21.30;33.40;;;;;;4993339;28;20466;-67
2020/12/31 01:53:30;;;;;;;3.65;2.50;;;21.30;33.30;;;;;;4993186;28;20498;-68
2020/12/31 01:56:00;;;;;;;2.87;2.50;;;21.30;33.40;;;;;;4975656;28;20572;-68
2020/12/31 01:58:26;;;;;;;3.10;2.20;;;21.30;33.40;;;;;;4992691;28;20490;-68
2020/12/31 02:00:51;;;;;;;2.38;2.10;;;21.30;33.30;;;;;;4993043;28;20938;-68
2020/12/31 02:03:17;;;;;;;3.10;2.20;;;21.30;33.40;;;;;;4992880;28;20414;-68
2020/12/31 02:05:44;;;;;;;2.40;2.20;;;21.30;33.40;;;;;;4992636;28;20448;-68
2020/12/31 02:08:10;;;;;;;3.03;2.40;;;21.30;33.40;;;;;;4975055;28;20391;-67
2020/12/31 02:10:35;;;;;;;2.80;2.10;;;21.30;33.40;;;;;;4975086;28;20414;-68
2020/12/31 02:13:01;;;;;;;3.20;2.30;;;21.20;33.40;;;;;;4992788;28;20442;-68
2020/12/31 02:15:28;;;;;;;2.47;2.28;;;21.30;33.50;;;;;;4992829;28;20438;-67
2020/12/31 02:17:54;;;;;;;2.97;2.30;;;21.30;33.50;;;;;;4975290;28;20394;-67
2020/12/31 02:20:19;;;;;;;2.60;2.20;;;21.20;33.40;;;;;;4992272;28;20402;-67
2020/12/31 02:22:45;;;;;;;2.80;2.30;;;21.20;33.50;;;;;;4992640;28;20386;-68
2020/12/31 02:25:11;;;;;;;2.97;2.03;;;21.20;33.50;;;;;;4992632;28;20425;-68
2020/12/31 02:27:36;;;;;;;2.60;2.30;;;21.20;33.50;;;;;;4992674;28;20399;-67
2020/12/31 02:30:03;;;;;;;3.30;2.33;;;21.20;33.50;;;;;;4992490;28;20795;-67
2020/12/31 02:32:28;;;;;;;2.67;2.10;;;21.20;33.50;;;;;;4992131;28;20486;-68
2020/12/31 02:34:54;;;;;;;2.40;2.17;;;21.20;33.50;;;;;;4992287;28;20505;-67
2020/12/31 02:37:19;;;;;;;2.30;1.97;;;21.20;33.40;;;;;;4974940;28;20401;-68
2020/12/31 02:39:45;;;;;;;2.90;2.22;;;21.20;33.50;;;;;;4975054;28;20406;-67
2020/12/31 02:42:11;;;;;;;2.50;2.17;;;21.20;33.40;;;;;;4992124;28;20933;-68
2020/12/31 02:44:36;;;;;;;2.60;2.28;;;21.20;33.50;;;;;;4974587;28;20881;-67
2020/12/31 02:47:02;;;;;;;2.87;1.90;;;21.20;33.50;;;;;;4974854;28;20398;-68
2020/12/31 02:49:27;;;;;;;2.70;2.10;;;21.20;33.50;;;;;;4992272;28;20425;-68
2020/12/31 02:51:53;;;;;;;3.10;2.20;;;21.10;33.50;;;;;;4992166;28;20496;-68
2020/12/31 02:54:18;;;;;;;2.70;2.17;;;21.10;33.50;;;;;;4991644;28;20418;-68
2020/12/31 02:56:44;;;;;;;2.42;1.98;;;21.10;33.50;;;;;;4992091;28;20448;-68
2020/12/31 02:59:10;;;;;;;2.37;2.00;;;21.10;33.50;;;;;;4974515;28;20751;-67
2020/12/31 03:01:35;;;;;;;2.65;2.00;;;21.10;33.60;;;;;;4992077;28;20394;-68
2020/12/31 03:04:01;;;;;;;2.70;2.00;;;21.10;33.60;;;;;;4991887;28;20759;-68
2020/12/31 03:06:26;;;;;;;2.17;1.90;;;21.10;33.60;;;;;;4974117;28;20952;-67
2020/12/31 03:08:52;;;;;;;2.47;2.07;;;21.10;33.70;;;;;;4992030;28;20398;-67
2020/12/31 03:11:25;;;;;;;2.78;1.90;;;21.10;33.70;;;;;;4992112;28;20418;-68
2020/12/31 03:13:52;;;;;;;2.13;1.88;;;21.10;33.60;;;;;;4974478;28;20469;-67
2020/12/31 03:16:19;;;;;;;2.10;1.80;;;21.10;33.60;;;;;;4991512;28;20390;-67
2020/12/31 03:18:46;;;;;;;2.10;1.80;;;21.10;33.60;;;;;;4994418;28;20395;-68
2020/12/31 03:21:12;;;;;;;2.67;1.88;;;21.10;33.60;;;;;;4978603;28;20393;-67
2020/12/31 03:23:38;;;;;;;2.20;2.00;;;21.10;33.60;;;;;;4995806;28;20410;-67
2020/12/31 03:26:07;;;;;;;2.45;2.10;;;21.00;33.50;;;;;;4995939;28;20432;-67
2020/12/31 03:28:32;;;;;;;2.25;1.90;;;21.00;33.50;;;;;;4995192;28;20404;-67
2020/12/31 03:30:58;;;;;;;2.27;1.90;;;21.00;33.50;;;;;;4995812;28;20382;-67
2020/12/31 03:33:24;;;;;;;2.78;2.00;;;21.00;33.50;;;;;;4978081;28;20934;-67
2020/12/31 03:35:50;;;;;;;2.33;1.80;;;21.00;33.50;;;;;;4995638;28;20394;-68
2020/12/31 03:38:18;;;;;;;2.27;1.90;;;21.00;33.50;;;;;;4995233;28;20657;-68
2020/12/31 03:40:43;;;;;;;2.42;2.13;;;21.00;33.60;;;;;;4995572;28;20412;-67
2020/12/31 03:43:10;;;;;;;2.60;1.90;;;21.00;33.60;;;;;;4995694;28;20395;-68
2020/12/31 03:45:36;;;;;;;2.30;1.92;;;21.00;33.60;;;;;;4995497;28;20498;-68
2020/12/31 03:48:02;;;;;;;2.22;1.83;;;21.00;33.70;;;;;;4995684;28;20448;-68
2020/12/31 03:50:27;;;;;;;2.65;1.73;;;21.00;33.70;;;;;;4994950;28;20386;-68
2020/12/31 03:52:53;;;;;;;2.43;1.70;;;21.00;33.70;;;;;;4995265;28;20493;-67
2020/12/31 03:55:19;;;;;;;2.03;1.77;;;21.00;33.70;;;;;;4995398;28;20404;-67
2020/12/31 03:57:44;;;;;;;1.90;1.70;;;21.00;33.70;;;;;;4995313;28;20473;-67
2020/12/31 04:00:11;;;;;;;2.17;1.75;;;21.00;33.70;;;;;;4977726;28;20406;-67
2020/12/31 04:02:36;;;;;;;2.28;1.70;;;21.00;33.70;;;;;;4977078;28;20984;-68
2020/12/31 04:05:03;;;;;;;1.92;1.70;;;21.00;33.70;;;;;;4995304;28;20403;-68
2020/12/31 04:07:29;;;;;;;2.33;1.52;;;21.00;33.70;;;;;;4995112;28;20474;-68
2020/12/31 04:09:55;;;;;;;2.10;1.70;;;21.00;33.70;;;;;;4995080;28;20797;-67
2020/12/31 04:12:20;;;;;;;2.67;1.80;;;21.00;33.60;;;;;;4994628;28;20428;-68
2020/12/31 04:14:46;;;;;;;2.55;1.67;;;21.00;33.60;;;;;;4994921;28;20418;-68
2020/12/31 04:17:12;;;;;;;2.50;1.73;;;21.00;33.70;;;;;;4994877;28;20605;-67
2020/12/31 04:19:41;;;;;;;2.30;1.50;;;21.00;33.60;;;;;;4994930;28;20406;-68
2020/12/31 04:22:07;;;;;;;2.07;1.80;;;21.00;33.70;;;;;;4994593;28;20506;-68
2020/12/31 04:24:34;;;;;;;1.88;1.60;;;21.00;33.70;;;;;;4994246;28;20403;-68
2020/12/31 04:26:59;;;;;;;2.20;1.60;;;21.00;33.70;;;;;;4994737;28;20391;-67
2020/12/31 04:29:25;;;;;;;2.60;1.93;;;20.90;33.70;;;;;;4994291;28;20402;-68
2020/12/31 04:31:51;;;;;;;2.03;1.70;;;21.00;33.80;;;;;;4977014;28;20386;-68
2020/12/31 04:34:16;;;;;;;1.90;1.60;;;20.90;33.70;;;;;;4977132;28;20446;-68
2020/12/31 04:36:42;;;;;;;1.70;1.50;;;20.90;33.80;;;;;;4994035;28;20871;-68
2020/12/31 04:39:07;;;;;;;2.13;1.70;;;20.90;33.80;;;;;;4977094;28;20445;-68
2020/12/31 04:41:33;;;;;;;1.80;1.50;;;20.90;34.40;;;;;;4994506;28;20390;-68
2020/12/31 04:44:02;;;;;;;2.10;1.60;;;20.90;33.80;;;;;;4994589;28;20910;-68
2020/12/31 04:46:29;;;;;;;1.92;1.60;;;20.90;33.80;;;;;;4994449;28;20879;-67
2020/12/31 04:49:20;;;;;;;1.88;1.58;;;20.90;33.70;;;;;;4994383;28;20441;-67
2020/12/31 04:51:48;;;;;;;2.33;1.80;;;20.90;33.70;;;;;;4994204;28;20437;-68
2020/12/31 04:54:14;;;;;;;2.00;1.70;;;20.90;33.70;;;;;;4994035;28;20449;-67
2020/12/31 04:56:39;;;;;;;2.20;1.73;;;20.90;33.70;;;;;;4994007;28;20396;-67
2020/12/31 04:59:07;;;;;;;1.83;1.60;;;20.90;33.70;;;;;;4994309;28;20931;-68
2020/12/31 05:01:33;;;;;;;2.45;1.90;;;20.90;33.70;;;;;;4994126;28;20394;-67
2020/12/31 05:03:59;;;;;;;2.20;1.88;;;20.90;33.70;;;;;;4993986;28;20411;-68
2020/12/31 05:06:26;;;;;;;2.35;2.00;;;20.90;33.60;;;;;;4993626;28;20457;-68
2020/12/31 05:08:52;;;;;;;2.40;1.95;;;20.90;33.70;;;;;;4993885;28;20402;-67
2020/12/31 05:11:18;;;;;;;2.70;2.10;;;20.80;33.60;;;;;;4993976;28;20862;-67
2020/12/31 05:13:49;;;;;;;3.03;2.28;;;20.90;33.70;;;;;;4993846;28;20468;-68
2020/12/31 05:16:27;;;;;;;2.92;2.20;;;20.90;33.70;;;;;;4993696;28;20402;-68
2020/12/31 05:18:52;;;;;;;2.90;2.30;;;20.80;33.70;;;;;;4993677;28;20390;-67
2020/12/31 05:21:18;;;;;;;2.65;2.20;;;20.80;33.70;;;;;;4993832;28;20791;-67
2020/12/31 05:23:44;;;;;;;3.35;2.40;;;20.90;33.80;;;;;;4993705;28;20385;-67
2020/12/31 05:26:11;;;;;;;3.17;2.50;;;20.90;33.80;;;;;;4993783;28;20514;-67
2020/12/31 05:28:37;;;;;;;3.72;2.90;;;20.80;33.70;;;;;;4975712;28;20469;-67
2020/12/31 05:31:12;;;;;;;3.30;2.50;;;20.80;33.70;;;;;;4993618;28;20393;-67
2020/12/31 05:33:40;;;;;;;4.07;2.85;;;20.90;33.80;;;;;;4993445;28;20450;-67
2020/12/31 05:36:19;;;;;;;3.88;2.80;;;20.90;33.70;;;;;;4993481;28;20449;-68
2020/12/31 05:38:57;;;;;;;3.58;2.92;;;20.90;33.70;;;;;;4975767;28;20486;-67
2020/12/31 05:41:28;;;;;;;4.63;2.97;;;20.80;33.60;;;;;;4992813;28;20485;-68
2020/12/31 05:43:56;;;;;;;4.13;3.03;;;20.80;33.70;;;;;;4993286;28;20379;-67
2020/12/31 05:46:22;;;;;;;3.92;2.63;;;20.80;33.70;;;;;;4975357;28;20449;-67
2020/12/31 05:49:14;;;;;;;4.40;2.90;;;20.70;33.60;;;;;;4992876;28;20394;-68
2020/12/31 05:51:41;;;;;;;4.20;2.83;;;20.70;33.60;;;;;;4972769;28;20487;-68
2020/12/31 05:54:13;;;;;;;4.18;2.83;;;20.80;33.70;;;;;;4975568;28;20459;-67
2020/12/31 05:56:43;;;;;;;4.00;2.80;;;20.80;33.70;;;;;;4992649;28;20985;-67
2020/12/31 05:59:22;;;;;;;3.70;2.63;;;20.70;33.80;;;;;;4993070;28;20422;-68
2020/12/31 06:01:58;;;;;;;4.35;2.78;;;20.70;33.80;;;;;;4992897;28;20402;-68
2020/12/31 06:04:29;;;;;;;4.32;3.00;;;20.80;33.90;;;;;;4974794;28;20508;-68
2020/12/31 06:07:00;;;;;;;4.05;2.88;;;20.70;33.80;;;;;;4975413;28;20409;-68
2020/12/31 06:09:31;;;;;;;3.75;2.65;;;20.70;33.80;;;;;;4992893;28;20529;-67
2020/12/31 06:12:07;;;;;;;3.85;2.60;;;20.70;33.80;;;;;;4975459;28;20545;-68
2020/12/31 06:14:35;;;;;;;3.17;2.50;;;20.70;33.70;;;;;;4992097;28;20445;-68
2020/12/31 06:17:06;;;;;;;3.58;2.60;;;20.70;33.70;;;;;;4992790;28;20386;-68
2020/12/31 06:19:32;;;;;;;3.60;2.60;;;20.70;33.70;;;;;;4992669;28;20391;-68
2020/12/31 06:22:05;;;;;;;3.95;2.70;;;20.70;33.70;;;;;;4992631;28;20422;-68
2020/12/31 06:24:38;;;;;;;4.28;2.60;;;20.70;33.70;;;;;;4992149;28;20441;-67
2020/12/31 06:27:10;;;;;;;3.22;2.40;;;20.60;33.70;;;;;;4992661;28;20382;-68
2020/12/31 06:29:47;;;;;;;3.55;2.55;;;20.70;33.70;;;;;;4992600;28;20517;-67
2020/12/31 06:32:36;;;;;;;4.00;2.33;;;20.70;33.70;;;;;;4992477;28;20402;-68
2020/12/31 06:35:10;;;;;;;3.17;2.00;;;20.60;33.60;;;;;;4974890;28;21130;-67
2020/12/31 06:37:36;;;;;;;3.45;2.42;;;20.70;33.80;;;;;;4974985;28;20399;-67
2020/12/31 06:40:20;;;;;;;3.00;2.33;;;20.70;33.80;;;;;;4975126;28;20946;-67
2020/12/31 06:43:05;;;;;;;3.50;2.15;;;20.60;33.70;;;;;;4974752;28;20401;-67
2020/12/31 06:45:49;;;;;;;3.53;2.30;;;20.60;33.80;;;;;;4992334;28;20441;-68
2020/12/31 06:48:27;;;;;;;3.10;2.17;;;20.60;33.80;;;;;;4992379;28;20477;-67
2020/12/31 06:50:57;;;;;;;2.83;2.13;;;20.70;33.90;;;;;;4992267;28;20444;-67
2020/12/31 06:53:37;;;;;;;3.10;1.98;;;20.70;33.90;;;;;;4991241;28;20426;-68
2020/12/31 06:56:08;;;;;;;2.88;2.10;;;20.60;33.70;;;;;;4992108;28;20394;-67
2020/12/31 06:58:34;;;;;;;3.10;1.95;;;20.50;33.60;;;;;;4991740;28;20394;-67
2020/12/31 07:01:01;;;;;;;3.40;2.15;;;20.50;33.60;;;;;;4992365;28;20390;-67
2020/12/31 07:03:47;;;;;;;2.83;1.70;;;20.50;33.30;;;;;;4992127;28;20457;-67
2020/12/31 07:06:22;;;;;;;2.78;1.90;;;20.60;33.10;;;;;;4994226;28;20412;-68
2020/12/31 07:08:55;;;;;;;3.10;1.80;;;20.70;34.00;;;;;;4992364;28;20397;-67
2020/12/31 07:11:28;;;;;;;2.38;1.88;;;20.70;34.80;;;;;;5004677;28;20945;-69
2020/12/31 07:13:53;;;;;;;3.55;1.70;;;20.80;34.70;;;;;;5004794;28;20421;-68
2020/12/31 07:16:40;;;;;;;3.43;1.93;;;20.80;34.70;;;;;;4999539;28;20889;-68
2020/12/31 07:19:07;;;;;;;2.20;1.67;;;20.80;34.50;;;;;;4991792;28;20397;-68
2020/12/31 07:21:37;;;;;;;3.70;1.87;;;20.80;33.50;;;;;;4991784;28;20434;-68
2020/12/31 07:24:23;;;;;;;2.30;1.70;;;20.60;32.70;;;;;;4991913;28;20422;-68
2020/12/31 07:27:00;;;;;;;3.00;1.70;;;20.50;32.80;;;;;;4991662;28;20501;-68
2020/12/31 07:29:33;;;;;;;3.15;1.75;;;20.50;32.90;;;;;;4991815;28;20394;-69
2020/12/31 07:32:01;;;;;;;3.28;1.70;;;20.50;33.10;;;;;;4992706;28;20428;-71
2020/12/31 07:34:30;;;;;;;2.33;1.80;;;20.50;33.50;;;;;;4993702;28;20416;-68
2020/12/31 07:37:04;;;;;;;4.90;1.98;;;20.50;33.30;;;;;;4997950;28;20752;-68
2020/12/31 07:39:31;;;;;;;3.17;1.90;;;20.40;34.00;;;;;;4999056;28;20409;-68
2020/12/31 07:42:14;;;;;;;4.60;2.60;;;20.40;33.20;;;;;;4985443;28;20807;-68
2020/12/31 07:44:51;;;;;;;3.70;2.40;;;20.40;33.20;;;;;;4998196;28;20545;-68
2020/12/31 07:47:18;;;;;;;3.45;2.63;;;20.40;33.20;;;;;;4999842;28;20434;-68
2020/12/31 07:49:45;;;;;;;7.97;3.72;;;20.50;33.30;;;;;;4999528;28;20385;-68
2020/12/31 07:52:11;;;;;;;5.97;3.20;;;20.50;33.50;;;;;;4998811;28;20394;-67
2020/12/31 07:54:37;;;;;;;10.38;3.10;;;20.50;34.90;;;;;;4999798;28;20928;-68
2020/12/31 07:57:04;;;;;;;4.90;3.10;;;20.50;34.20;;;;;;4982931;28;20440;-68
2020/12/31 07:59:29;;;;;;;5.93;3.20;;;20.50;34.00;;;;;;5001328;28;20745;-67
2020/12/31 08:01:55;;;;;;;5.57;3.00;;;20.50;34.20;;;;;;4999363;28;20399;-67
2020/12/31 08:04:26;;;;;;;4.23;2.90;;;20.40;33.50;;;;;;5001196;28;20858;-67
2020/12/31 08:06:52;;;;;;;5.70;3.17;;;20.40;33.50;;;;;;5006324;28;20661;-68
2020/12/31 08:09:22;;;;;;;4.53;3.30;;;20.50;33.50;;;;;;5001981;28;20749;-67
2020/12/31 08:11:51;;;;;;;4.75;3.60;;;20.50;34.10;;;;;;5004270;28;20397;-69
2020/12/31 08:14:16;;;;;;;5.13;3.70;;;20.50;33.70;;;;;;5004306;28;20508;-67
2020/12/31 08:16:42;;;;;;;4.75;3.30;;;20.50;33.60;;;;;;4986603;28;20477;-67
2020/12/31 08:19:08;;;;;;;5.03;3.50;;;20.50;33.50;;;;;;5004283;28;20389;-68
2020/12/31 08:21:35;;;;;;;4.43;3.60;;;20.50;33.70;;;;;;5002769;28;20417;-67
2020/12/31 08:24:08;;;;;;;4.65;3.30;;;20.60;33.60;;;;;;4987549;28;20401;-69
2020/12/31 08:26:35;;;;;;;7.50;3.40;;;20.60;33.90;;;;;;4998933;28;20422;-68
2020/12/31 08:29:02;;;;;;;4.57;3.33;;;20.50;34.10;;;;;;5002792;28;20409;-67
2020/12/31 08:31:30;;;;;;;4.68;3.22;;;20.60;33.90;;;;;;5003340;28;20454;-67
2020/12/31 08:33:59;;;;;;;6.05;3.30;;;20.60;33.90;;;;;;5003070;28;20476;-68
2020/12/31 08:36:26;;;;;;;6.00;2.85;;;20.70;33.90;;;;;;4982181;28;20850;-68
2020/12/31 08:38:58;;;;;;;5.35;3.38;;;20.70;33.40;;;;;;5000047;28;21143;-67
2020/12/31 08:41:24;;;;;;;8.73;3.30;;;20.70;33.70;;;;;;5003061;28;20403;-68
2020/12/31 08:43:53;;;;;;;7.23;3.20;;;20.80;34.00;;;;;;5000444;28;20974;-67
2020/12/31 08:46:21;;;;;;;7.35;3.58;;;20.80;34.10;;;;;;5001452;28;20479;-68
2020/12/31 08:48:55;;;;;;;5.63;3.63;;;20.90;33.90;;;;;;5003573;28;21018;-68
2020/12/31 08:51:21;;;;;;;12.82;4.43;;;20.90;34.00;;;;;;5002996;28;20393;-67
2020/12/31 08:53:50;;;;;;;7.43;4.05;;;21.00;34.80;;;;;;5004471;28;20418;-68
2020/12/31 08:56:17;;;;;;;8.27;4.10;;;21.10;34.90;;;;;;5003409;28;20419;-68
2020/12/31 08:58:43;;;;;;;10.02;3.83;;;21.10;35.70;;;;;;5002801;28;20775;-68
2020/12/31 09:01:24;;;;;;;8.35;3.53;;;21.20;35.20;;;;;;5004187;28;20904;-68
2020/12/31 09:03:51;;;;;;;8.57;4.30;;;21.30;34.80;;;;;;5003404;28;20409;-68
2020/12/31 09:06:26;;;;;;;12.10;4.20;;;21.40;35.70;;;;;;5002085;28;20383;-69
2020/12/31 09:08:52;;;;;;;9.05;3.60;;;21.40;35.20;;;;;;5001255;28;20398;-68
2020/12/31 09:11:27;;;;;;;12.70;3.80;;;21.50;34.90;;;;;;5002822;28;20401;-67
2020/12/31 09:13:54;;;;;;;10.52;3.35;;;21.50;34.80;;;;;;5001488;28;20925;-68
2020/12/31 09:16:20;;;;;;;7.88;3.10;;;21.60;34.70;;;;;;5001605;28;20393;-68
2020/12/31 09:18:57;;;;;;;7.40;3.30;;;21.60;34.60;;;;;;5000330;28;20460;-68
2020/12/31 09:21:27;;;;;;;12.45;3.60;;;21.60;34.20;;;;;;5002785;28;20390;-68
2020/12/31 09:23:52;;;;;;;7.45;3.10;;;21.60;34.30;;;;;;5001472;28;20437;-68
2020/12/31 09:26:25;;;;;;;5.40;3.03;;;21.60;34.00;;;;;;5001397;28;20406;-68
2020/12/31 09:28:50;;;;;;;6.63;3.00;;;21.60;33.80;;;;;;5000778;28;20394;-68
2020/12/31 09:31:21;;;;;;;7.23;3.10;;;21.50;34.10;;;;;;5002731;28;20397;-67
2020/12/31 09:33:48;;;;;;;4.47;2.80;;;21.60;34.20;;;;;;5003086;28;20416;-67
2020/12/31 09:36:25;;;;;;;5.13;2.65;;;21.60;34.10;;;;;;5001217;28;20493;-68
2020/12/31 09:38:52;;;;;;;6.18;2.90;;;21.50;33.80;;;;;;5000716;28;20461;-68
2020/12/31 09:41:18;;;;;;;4.15;2.88;;;21.60;33.60;;;;;;5003638;28;20398;-68
2020/12/31 09:43:44;;;;;;;5.15;2.63;;;21.60;33.30;;;;;;5001616;28;20877;-67
2020/12/31 09:46:10;;;;;;;4.70;2.70;;;21.70;33.10;;;;;;4985320;28;20401;-68
2020/12/31 09:48:35;;;;;;;5.68;2.83;;;21.80;33.00;;;;;;5000802;28;20508;-67
2020/12/31 09:51:02;;;;;;;3.60;2.40;;;21.80;32.90;;;;;;5001803;28;20480;-67
2020/12/31 09:53:27;;;;;;;3.58;2.67;;;21.80;33.00;;;;;;5002597;28;20418;-67
2020/12/31 09:55:53;;;;;;;4.55;2.50;;;21.80;32.90;;;;;;5000708;28;20387;-68
2020/12/31 09:58:19;;;;;;;3.83;2.60;;;21.90;32.60;;;;;;5001892;28;20401;-67
2020/12/31 10:00:45;;;;;;;5.13;2.80;;;21.90;32.60;;;;;;4981752;28;20428;-68
2020/12/31 10:03:10;;;;;;;3.60;2.50;;;21.90;32.40;;;;;;5002351;28;20408;-68
2020/12/31 10:05:36;;;;;;;4.03;2.30;;;21.90;32.50;;;;;;4999861;28;20401;-67
2020/12/31 10:08:01;;;;;;;3.13;2.30;;;21.90;32.40;;;;;;4999908;28;20392;-68
2020/12/31 10:10:27;;;;;;;3.00;2.40;;;22.00;32.70;;;;;;5002264;28;20404;-67
2020/12/31 10:12:53;;;;;;;3.88;2.33;;;22.00;32.40;;;;;;5000091;28;20799;-68
2020/12/31 10:15:18;;;;;;;3.87;2.40;;;22.00;32.60;;;;;;5001598;28;20490;-69
2020/12/31 10:17:44;;;;;;;4.25;2.40;;;22.00;32.60;;;;;;5002142;28;20411;-67
2020/12/31 10:20:09;;;;;;;3.40;2.35;;;22.00;32.40;;;;;;5002339;28;20745;-68
2020/12/31 10:22:35;;;;;;;3.20;2.20;;;22.00;32.40;;;;;;5000014;28;20413;-67
2020/12/31 10:25:01;;;;;;;3.25;2.30;;;22.00;32.30;;;;;;5002967;28;20452;-68
2020/12/31 10:27:26;;;;;;;3.13;2.20;;;22.00;32.30;;;;;;5000273;28;20397;-68
2020/12/31 10:29:52;;;;;;;2.92;2.17;;;22.10;32.30;;;;;;5002203;28;20408;-68
2020/12/31 10:32:18;;;;;;;3.55;2.30;;;22.10;32.30;;;;;;5004972;28;20397;-68
2020/12/31 10:34:44;;;;;;;3.50;2.20;;;22.10;32.20;;;;;;4998979;28;20908;-68
2020/12/31 10:37:09;;;;;;;3.42;2.10;;;22.10;32.20;;;;;;5002354;28;20389;-68
2020/12/31 10:39:35;;;;;;;2.70;1.97;;;22.10;32.20;;;;;;5000615;28;20904;-68
2020/12/31 10:42:01;;;;;;;2.90;2.10;;;22.10;32.20;;;;;;5000872;28;20389;-68
2020/12/31 10:44:26;;;;;;;2.83;2.00;;;22.20;32.20;;;;;;5001907;28;20405;-68
2020/12/31 10:46:55;;;;;;;3.35;2.20;;;22.20;32.20;;;;;;4996296;28;20386;-68
2020/12/31 10:49:23;;;;;;;3.25;2.28;;;22.30;32.30;;;;;;4979861;28;20775;-69
2020/12/31 10:51:50;;;;;;;2.90;2.10;;;22.20;32.20;;;;;;4999406;28;20943;-67
2020/12/31 10:54:17;;;;;;;3.22;2.20;;;22.30;32.20;;;;;;5004245;28;20835;-68
2020/12/31 10:56:42;;;;;;;3.70;2.25;;;22.30;32.20;;;;;;4993761;28;20389;-68
2020/12/31 10:59:08;;;;;;;4.80;2.50;;;22.30;32.30;;;;;;5011715;28;20499;-68
2020/12/31 11:01:34;;;;;;;4.82;2.65;;;22.30;32.30;;;;;;4994127;28;20392;-68
2020/12/31 11:03:59;;;;;;;4.30;2.70;;;22.30;32.30;;;;;;5011612;28;20417;-68
2020/12/31 11:06:27;;;;;;;4.20;2.60;;;22.30;32.30;;;;;;4994103;28;20423;-69
2020/12/31 11:08:54;;;;;;;3.47;2.50;;;22.30;32.20;;;;;;5011170;28;20401;-69
2020/12/31 11:11:21;;;;;;;4.20;2.53;;;22.40;32.10;;;;;;5003306;28;20393;-68
2020/12/31 11:13:47;;;;;;;4.70;2.60;;;22.40;32.20;;;;;;5011430;28;20925;-69
2020/12/31 11:16:13;;;;;;;4.30;2.70;;;22.60;32.90;;;;;;5011688;28;20475;-69
2020/12/31 11:18:40;;;;;;;4.18;2.55;;;22.60;32.40;;;;;;5010699;28;20403;-69
2020/12/31 11:21:06;;;;;;;3.72;2.63;;;22.60;32.20;;;;;;4994243;28;20466;-69
2020/12/31 11:23:32;;;;;;;3.90;2.50;;;22.60;32.20;;;;;;5011242;28;20804;-68
2020/12/31 11:25:58;;;;;;;3.23;2.30;;;22.60;32.80;;;;;;5011458;28;20874;-69
2020/12/31 11:28:23;;;;;;;4.50;2.13;;;22.60;32.10;;;;;;4990740;28;20402;-68
2020/12/31 11:30:49;;;;;;;3.80;2.10;;;22.60;32.10;;;;;;5007623;28;20947;-69
2020/12/31 11:33:15;;;;;;;3.63;2.17;;;22.60;31.90;;;;;;4996646;28;20397;-69
2020/12/31 11:35:41;;;;;;;3.00;1.85;;;22.60;31.90;;;;;;4998027;28;20408;-69
2020/12/31 11:38:06;;;;;;;2.33;2.00;;;22.60;31.70;;;;;;5005713;28;20396;-68
2020/12/31 11:40:32;;;;;;;3.22;1.98;;;22.60;31.70;;;;;;5014830;28;20435;-68
2020/12/31 11:42:57;;;;;;;3.33;2.00;;;22.60;31.60;;;;;;5014939;28;20861;-68
2020/12/31 11:45:23;;;;;;;2.97;1.80;;;22.60;31.50;;;;;;5015197;28;20401;-68
2020/12/31 11:47:49;;;;;;;2.40;1.90;;;22.70;31.50;;;;;;4997603;28;20479;-68
2020/12/31 11:50:14;;;;;;;2.15;1.70;;;22.70;31.50;;;;;;5014650;28;20915;-69
2020/12/31 11:52:40;;;;;;;2.63;1.80;;;22.70;31.40;;;;;;5014495;28;20389;-69
2020/12/31 11:55:06;;;;;;;2.00;1.50;;;22.70;31.30;;;;;;5014833;28;20416;-68
2020/12/31 11:57:32;;;;;;;3.20;1.70;;;22.70;31.30;;;;;;5014875;28;20777;-68
2020/12/31 11:59:58;;;;;;;2.13;1.70;;;22.70;31.80;;;;;;4997304;28;20384;-68
2020/12/31 12:02:23;;;;;;;2.00;1.70;;;22.80;31.20;;;;;;5014405;28;20391;-69
2020/12/31 12:04:49;;;;;;;2.60;1.60;;;22.80;31.20;;;;;;5000597;28;20410;-68
2020/12/31 12:07:14;;;;;;;2.30;1.70;;;22.80;31.10;;;;;;4995013;28;20775;-69
2020/12/31 12:09:41;;;;;;;2.27;1.50;;;22.80;31.70;;;;;;4995059;28;20399;-69
2020/12/31 12:12:08;;;;;;;2.17;1.55;;;22.80;31.00;;;;;;4995127;28;20391;-68
2020/12/31 12:14:33;;;;;;;2.58;1.58;;;22.80;31.00;;;;;;4994535;28;20422;-69
2020/12/31 12:17:01;;;;;;;2.30;1.50;;;22.80;31.00;;;;;;4977430;28;20417;-69
2020/12/31 12:19:26;;;;;;;2.05;1.60;;;22.80;31.00;;;;;;4994936;28;20533;-69
2020/12/31 12:21:57;;;;;;;1.70;1.40;;;22.80;31.00;;;;;;4994918;28;20473;-68
2020/12/31 12:24:23;;;;;;;2.20;1.50;;;22.80;31.60;;;;;;4978363;28;20407;-68
2020/12/31 12:26:49;;;;;;;2.20;1.40;;;22.80;31.00;;;;;;4995824;28;20447;-68
2020/12/31 12:29:14;;;;;;;2.20;1.53;;;22.80;30.90;;;;;;5014083;28;20403;-68
2020/12/31 12:31:40;;;;;;;2.13;1.45;;;22.80;31.00;;;;;;5014244;28;20397;-68
2020/12/31 12:34:06;;;;;;;1.80;1.48;;;22.80;30.90;;;;;;5013956;28;20776;-68
2020/12/31 12:36:33;;;;;;;2.08;1.40;;;22.90;31.00;;;;;;5014238;28;20391;-69
2020/12/31 12:38:59;;;;;;;1.90;1.42;;;22.90;31.00;;;;;;5013856;28;20908;-69
2020/12/31 12:41:25;;;;;;;1.40;1.13;;;22.90;31.00;;;;;;4996610;28;20397;-68
2020/12/31 12:43:51;;;;;;;3.65;1.40;;;22.90;30.90;;;;;;5013973;28;20401;-68
2020/12/31 12:46:18;;;;;;;3.28;1.50;;;23.80;35.10;;;;;;4996434;28;20488;-69
2020/12/31 12:48:44;;;;;;;2.70;1.40;;;24.50;33.00;;;;;;5012922;28;20464;-68